Time;durP1;ratioP1;P1;durP2;ratioP2;P2;SDS_P1;SDS_P2;PMS_P1;PMS_P2;Temp;Humidity;BMP_temperature;BMP_pressure;BME280_temperature;BME280_humidity;BME280_pressure;Samples;Min_cycle;Max_cycle;Signal;HPM_P1;HPM_P2
2021/08/29 00:05:13;;;;;;;46.40;43.20;;;;;;;13.88;100.00;102672.07;1971886;73;33096;-78
2021/08/29 00:10:37;;;;;;;46.87;43.57;;;;;;;13.79;100.00;102669.45;1972159;73;33448;-72
2021/08/29 00:16:02;;;;;;;46.03;42.83;;;;;;;13.74;100.00;102661.86;1971928;73;33082;-78
2021/08/29 00:21:27;;;;;;;57.57;53.03;;;;;;;13.69;100.00;102659.03;1967516;71;32939;-72
2021/08/29 00:26:52;;;;;;;46.80;43.47;;;;;;;13.75;100.00;102655.17;1972148;73;33460;-72
2021/08/29 00:32:16;;;;;;;46.27;43.20;;;;;;;13.75;100.00;102651.53;1971895;73;32943;-77
2021/08/29 00:37:41;;;;;;;46.13;42.73;;;;;;;13.85;100.00;102656.69;1971937;73;33020;-78
2021/08/29 00:43:08;;;;;;;46.57;43.40;;;;;;;14.05;100.00;102651.30;1971955;73;32961;-72
2021/08/29 00:48:32;;;;;;;46.47;43.27;;;;;;;14.12;100.00;102643.53;1971899;72;32956;-78
2021/08/29 00:54:00;;;;;;;46.20;42.93;;;;;;;13.97;100.00;102648.98;1971918;73;32990;-71
2021/08/29 00:59:25;;;;;;;47.43;44.30;;;;;;;14.14;100.00;102645.52;1971906;73;33016;-72
2021/08/29 01:04:55;;;;;;;49.67;46.67;;;;;;;14.13;100.00;102640.19;1971916;73;33036;-76
2021/08/29 01:10:25;;;;;;;49.47;46.33;;;;;;;14.22;100.00;102633.55;1971915;73;33078;-78
2021/08/29 01:15:54;;;;;;;49.63;46.53;;;;;;;14.18;100.00;102636.59;1972212;73;32910;-72
2021/08/29 01:24:11;;;;;;;49.33;46.33;;;;;;;14.18;100.00;102642.19;2061166;69;32764;-78
2021/08/29 01:26:47;;;;;;;46.27;43.00;;;;;;;14.24;100.00;102639.73;1950666;73;26245;-78
2021/08/29 01:29:20;;;;;;;44.33;41.33;;;;;;;14.24;100.00;102639.73;2030605;71;26608;-72
2021/08/29 01:31:50;;;;;;;47.60;44.60;;;;;;;14.21;100.00;102641.09;2030772;70;26223;-78
2021/08/29 01:34:21;;;;;;;50.73;47.53;;;;;;;14.05;100.00;102633.69;2030654;71;26162;-78
2021/08/29 01:36:54;;;;;;;48.73;45.63;;;;;;;14.23;100.00;102633.85;2030778;71;26167;-71
2021/08/29 01:39:26;;;;;;;48.87;45.53;;;;;;;14.24;100.00;102628.56;2030661;70;26169;-71
2021/08/29 01:41:56;;;;;;;49.03;46.03;;;;;;;14.26;100.00;102627.17;2030599;70;26549;-72
2021/08/29 01:44:28;;;;;;;49.93;46.73;;;;;;;14.36;100.00;102627.84;2030659;71;26165;-79
2021/08/29 01:46:59;;;;;;;50.00;46.90;;;;;;;14.43;100.00;102632.64;2030730;70;26158;-72
2021/08/29 01:49:30;;;;;;;48.87;45.77;;;;;;;14.41;100.00;102628.73;2030678;70;26165;-72
2021/08/29 01:52:01;;;;;;;49.17;46.23;;;;;;;14.44;100.00;102632.94;2030741;71;26158;-75
2021/08/29 01:54:31;;;;;;;47.70;44.70;;;;;;;14.23;100.00;102639.44;2030629;71;26639;-77
2021/08/29 01:57:05;;;;;;;50.87;47.53;;;;;;;14.24;100.00;102632.75;2030598;71;26169;-74
2021/08/29 01:59:35;;;;;;;49.67;46.57;;;;;;;14.45;100.00;102632.68;2030715;70;26149;-71
2021/08/29 02:02:06;;;;;;;48.60;45.50;;;;;;;14.53;100.00;102627.14;2030570;70;26608;-72
2021/08/29 02:04:37;;;;;;;49.30;46.27;;;;;;;14.50;100.00;102631.30;2030573;71;26173;-72
2021/08/29 02:07:15;;;;;;;48.97;45.70;;;;;;;14.47;100.00;102629.05;2030673;70;26239;-78
2021/08/29 02:09:49;;;;;;;49.73;46.63;;;;;;;14.56;100.00;102633.03;2030710;71;26161;-78
2021/08/29 02:12:20;;;;;;;49.13;46.13;;;;;;;14.43;100.00;102626.50;1950758;73;26245;-71
2021/08/29 02:14:55;;;;;;;49.23;46.27;;;;;;;14.39;100.00;102626.75;2030645;71;26161;-78
2021/08/29 02:17:28;;;;;;;49.47;46.47;;;;;;;14.39;100.00;102624.50;2030014;71;26620;-72
2021/08/29 02:20:01;;;;;;;49.90;46.90;;;;;;;14.35;100.00;102632.59;2030636;71;26161;-78
2021/08/29 02:22:34;;;;;;;49.53;46.53;;;;;;;14.28;100.00;102638.09;2000783;70;26752;-71
2021/08/29 02:25:07;;;;;;;49.53;46.53;;;;;;;14.36;100.00;102636.23;1993605;72;26277;-71
2021/08/29 02:27:39;;;;;;;49.27;46.17;;;;;;;14.23;100.00;102637.50;1923163;74;26186;-77
2021/08/29 02:33:06;;;;;;;48.23;45.23;;;;;;;14.23;100.00;102633.30;1971920;73;32900;-78
2021/08/29 02:38:31;;;;;;;49.07;45.87;;;;;;;14.12;100.00;102621.72;1971874;73;32940;-72
2021/08/29 02:43:59;;;;;;;49.47;46.37;;;;;;;14.07;100.00;102625.89;1972141;73;32998;-78
2021/08/29 02:49:25;;;;;;;50.23;47.07;;;;;;;14.07;100.00;102623.10;1971916;73;32907;-78
2021/08/29 02:54:52;;;;;;;49.53;46.47;;;;;;;13.86;100.00;102617.03;1971897;73;33002;-78
2021/08/29 03:00:19;;;;;;;47.87;44.93;;;;;;;14.07;100.00;102611.92;1971911;73;32940;-72
2021/08/29 03:05:44;;;;;;;49.90;46.87;;;;;;;13.64;100.00;102615.14;1972111;73;33436;-71
2021/08/29 03:11:11;;;;;;;49.53;46.27;;;;;;;13.75;100.00;102611.03;1971886;73;33051;-71
2021/08/29 03:16:37;;;;;;;47.93;44.83;;;;;;;13.75;100.00;102607.69;1972116;73;33524;-71
2021/08/29 03:22:04;;;;;;;49.20;46.03;;;;;;;13.78;100.00;102590.98;1954495;73;32987;-78
2021/08/29 03:27:29;;;;;;;47.43;44.33;;;;;;;13.57;100.00;102599.13;1971975;73;32913;-71
2021/08/29 03:32:54;;;;;;;48.43;45.23;;;;;;;13.30;100.00;102596.88;1972068;72;33445;-72
2021/08/29 03:38:23;;;;;;;47.17;44.27;;;;;;;13.17;100.00;102593.94;1971879;73;32980;-78
2021/08/29 03:43:49;;;;;;;48.27;44.87;;;;;;;13.02;100.00;102602.61;1972151;73;33083;-75
2021/08/29 03:49:14;;;;;;;46.93;43.93;;;;;;;13.03;100.00;102595.93;1971852;73;32983;-72
2021/08/29 03:54:40;;;;;;;46.87;43.87;;;;;;;13.05;100.00;102592.34;1971875;73;32931;-78
2021/08/29 04:00:08;;;;;;;46.67;43.63;;;;;;;12.93;100.00;102587.42;1972126;73;33586;-72
2021/08/29 04:05:35;;;;;;;46.43;43.53;;;;;;;12.95;100.00;102582.44;1971892;73;32998;-71
2021/08/29 04:11:02;;;;;;;48.10;45.00;;;;;;;13.04;100.00;102578.95;1972101;73;33544;-78
2021/08/29 04:16:29;;;;;;;44.93;42.03;;;;;;;13.13;100.00;102574.62;1971928;73;32911;-71
2021/08/29 04:21:56;;;;;;;45.40;42.40;;;;;;;13.25;100.00;102571.69;1956009;73;33023;-72
2021/08/29 04:27:22;;;;;;;45.83;42.87;;;;;;;13.20;100.00;102569.69;1971827;73;32909;-72
2021/08/29 04:32:50;;;;;;;48.20;45.00;;;;;;;13.00;100.00;102574.14;1972168;73;33586;-71
2021/08/29 04:38:15;;;;;;;48.23;45.10;;;;;;;13.21;100.00;102565.80;1971912;73;33007;-71
2021/08/29 04:43:42;;;;;;;48.90;45.63;;;;;;;13.25;100.00;102558.28;1972127;73;33555;-78
2021/08/29 04:49:07;;;;;;;46.73;43.73;;;;;;;13.13;100.00;102555.64;1971903;73;32893;-71
2021/08/29 04:54:32;;;;;;;48.00;44.80;;;;;;;13.14;100.00;102556.77;1972127;73;33568;-77
2021/08/29 04:59:57;;;;;;;47.80;44.80;;;;;;;13.02;100.00;102556.03;1972156;73;33428;-78
2021/08/29 05:05:21;;;;;;;47.00;44.10;;;;;;;12.89;100.00;102573.15;1971905;73;32918;-72
2021/08/29 05:10:46;;;;;;;47.80;44.40;;;;;;;12.51;100.00;102571.23;1971974;73;33463;-79
2021/08/29 05:16:11;;;;;;;46.43;43.53;;;;;;;12.59;100.00;102575.52;1972114;72;33555;-72
2021/08/29 05:21:35;;;;;;;47.10;44.10;;;;;;;12.55;100.00;102576.59;1960056;73;32926;-77
2021/08/29 05:27:01;;;;;;;47.77;44.67;;;;;;;12.39;100.00;102578.01;1972172;73;33376;-78
2021/08/29 05:32:25;;;;;;;46.93;44.03;;;;;;;12.51;100.00;102576.80;1971919;73;32933;-78
2021/08/29 05:37:50;;;;;;;45.77;42.87;;;;;;;12.44;100.00;102576.16;1971950;73;32908;-71
2021/08/29 05:43:14;;;;;;;44.20;41.30;;;;;;;12.46;100.00;102585.63;1971923;73;33005;-72
2021/08/29 05:48:39;;;;;;;45.53;42.43;;;;;;;12.38;100.00;102591.64;1971911;73;32940;-72
2021/08/29 05:54:04;;;;;;;44.13;41.03;;;;;;;12.41;100.00;102591.97;1972324;73;33030;-78
2021/08/29 05:59:29;;;;;;;45.30;42.30;;;;;;;12.45;100.00;102590.94;1971936;73;32998;-71
2021/08/29 06:04:54;;;;;;;45.10;42.20;;;;;;;12.62;100.00;102587.57;1971961;73;32978;-71
2021/08/29 06:10:18;;;;;;;44.70;41.90;;;;;;;12.76;100.00;102585.53;1971947;73;32915;-71
2021/08/29 06:15:43;;;;;;;46.33;43.43;;;;;;;12.82;100.00;102572.51;1971992;73;32920;-76
2021/08/29 06:21:08;;;;;;;46.37;43.47;;;;;;;13.03;100.00;102575.01;1972168;73;33506;-76
2021/08/29 06:26:33;;;;;;;45.80;43.00;;;;;;;13.03;100.00;102575.86;1971963;73;33055;-72
2021/08/29 06:31:57;;;;;;;42.33;39.17;;;;;;;13.18;100.00;102574.66;1971915;73;32920;-71
2021/08/29 06:37:22;;;;;;;44.27;41.17;;;;;;;13.36;100.00;102566.50;1971955;73;32913;-76
2021/08/29 06:42:47;;;;;;;43.33;40.43;;;;;;;13.63;100.00;102567.91;1972152;73;33387;-71
2021/08/29 06:48:12;;;;;;;42.60;39.80;;;;;;;13.71;100.00;102566.03;1971899;73;33015;-76
2021/08/29 06:53:36;;;;;;;44.60;41.27;;;;;;;13.86;100.00;102564.77;1971894;73;32902;-71
2021/08/29 06:59:01;;;;;;;43.57;40.73;;;;;;;13.97;100.00;102560.98;1972249;73;32910;-75
2021/08/29 07:04:26;;;;;;;43.80;40.90;;;;;;;14.05;100.00;102561.03;1972151;73;33496;-71
2021/08/29 07:09:50;;;;;;;47.10;43.80;;;;;;;14.00;100.00;102562.37;1972144;73;33494;-70
2021/08/29 07:15:15;;;;;;;45.33;42.13;;;;;;;14.29;100.00;102565.13;1971962;73;32930;-76
2021/08/29 07:20:39;;;;;;;43.57;40.57;;;;;;;14.47;100.00;102560.53;1971734;73;33457;-75
2021/08/29 07:26:04;;;;;;;43.40;40.60;;;;;;;14.73;100.00;102544.75;1971926;72;33029;-71
2021/08/29 07:31:29;;;;;;;43.17;40.27;;;;;;;14.68;100.00;102551.70;1971933;73;33025;-77
2021/08/29 07:36:54;;;;;;;43.93;40.93;;;;;;;14.72;100.00;102554.83;1971940;73;32987;-71
2021/08/29 07:42:19;;;;;;;42.83;40.03;;;;;;;15.05;100.00;102554.42;1972151;73;32892;-71
2021/08/29 07:47:44;;;;;;;44.37;41.53;;;;;;;15.10;100.00;102559.20;1971972;73;32920;-71
2021/08/29 07:53:09;;;;;;;43.20;40.37;;;;;;;15.19;100.00;102556.16;1971912;73;32910;-74
2021/08/29 07:58:33;;;;;;;43.83;40.90;;;;;;;15.44;100.00;102552.87;1971924;73;33038;-71
2021/08/29 08:03:58;;;;;;;43.80;40.97;;;;;;;15.54;100.00;102548.41;1972171;73;33014;-75
2021/08/29 08:09:22;;;;;;;42.23;39.53;;;;;;;15.71;100.00;102534.98;1971892;73;32970;-72
2021/08/29 08:14:47;;;;;;;43.00;40.20;;;;;;;15.67;100.00;102541.72;1971992;73;33020;-71
2021/08/29 08:20:31;;;;;;;40.90;38.30;;;;;;;16.23;100.00;102535.55;2016294;71;32835;-76
2021/08/29 08:25:56;;;;;;;42.50;39.73;;;;;;;16.53;100.00;102532.41;1971885;73;32958;-71
2021/08/29 08:31:22;;;;;;;42.03;39.23;;;;;;;16.26;100.00;102532.73;1972190;73;33633;-76
2021/08/29 08:36:47;;;;;;;42.23;39.23;;;;;;;16.30;100.00;102547.31;1971927;73;32906;-76
2021/08/29 08:42:12;;;;;;;44.80;42.10;;;;;;;16.23;100.00;102547.33;1972130;73;33406;-70
2021/08/29 08:47:45;;;;;;;42.80;40.20;;;;;;;16.33;100.00;102545.92;1971956;73;33018;-71
2021/08/29 08:53:11;;;;;;;42.07;39.57;;;;;;;16.39;100.00;102543.37;1971941;73;32984;-69
2021/08/29 08:58:39;;;;;;;40.03;37.57;;;;;;;16.79;100.00;102542.47;1971976;73;32967;-77
2021/08/29 09:04:05;;;;;;;40.07;37.27;;;;;;;16.90;100.00;102542.69;1971937;73;32964;-70
2021/08/29 09:09:30;;;;;;;38.97;36.47;;;;;;;16.98;100.00;102546.90;1972098;73;32938;-75
2021/08/29 09:14:57;;;;;;;41.80;39.30;;;;;;;16.96;100.00;102543.52;1971938;73;30938;-72
2021/08/29 09:20:27;;;;;;;40.13;37.63;;;;;;;17.44;100.00;102538.50;1971917;73;32958;-71
2021/08/29 09:25:55;;;;;;;36.77;34.53;;;;;;;17.42;100.00;102539.91;1971907;73;32872;-76
2021/08/29 09:31:21;;;;;;;34.07;32.07;;;;;;;17.68;100.00;102541.45;1971936;73;32869;-76
2021/08/29 09:37:02;;;;;;;33.20;31.30;;;;;;;17.77;100.00;102534.08;1972158;73;33419;-71
2021/08/29 09:42:27;;;;;;;33.63;31.20;;;;;;;18.20;100.00;102530.90;1972136;72;33396;-75
2021/08/29 09:47:55;;;;;;;34.10;31.63;;;;;;;18.25;100.00;102528.61;1971927;73;32991;-71
2021/08/29 09:53:21;;;;;;;34.07;31.83;;;;;;;18.02;100.00;102529.66;1971936;73;31054;-73
2021/08/29 09:58:46;;;;;;;39.50;37.23;;;;;;;17.92;100.00;102535.95;1972160;73;30941;-75
2021/08/29 10:04:19;;;;;;;34.33;32.23;;;;;;;18.00;100.00;102541.78;1971929;73;31047;-71
2021/08/29 10:09:47;;;;;;;42.30;39.90;;;;;;;18.24;100.00;102534.80;1971891;73;31060;-76
2021/08/29 10:15:12;;;;;;;31.93;30.03;;;;;;;18.65;100.00;102524.00;1971995;73;30948;-71
2021/08/29 10:20:38;;;;;;;40.93;38.63;;;;;;;18.68;100.00;102526.20;1972156;73;30956;-76
2021/08/29 10:26:05;;;;;;;29.70;28.10;;;;;;;18.64;100.00;102520.91;1971943;73;31094;-71
2021/08/29 10:31:35;;;;;;;32.97;30.97;;;;;;;18.53;100.00;102521.58;1972153;73;31023;-73
2021/08/29 10:37:00;;;;;;;31.97;29.87;;;;;;;18.35;100.00;102516.70;1971963;73;31160;-75
2021/08/29 10:42:25;;;;;;;35.77;33.73;;;;;;;18.13;100.00;102520.57;1972149;73;31465;-71
2021/08/29 10:47:53;;;;;;;33.33;31.43;;;;;;;18.25;100.00;102531.42;1971890;73;30947;-76
2021/08/29 10:53:33;;;;;;;31.20;29.60;;;;;;;18.83;100.00;102512.50;1971944;73;31022;-71
2021/08/29 10:59:28;;;;;;;31.43;29.50;;;;;;;18.93;100.00;102513.79;1972057;73;30955;-71
2021/08/29 11:05:13;;;;;;;28.90;27.20;;;;;;;18.98;100.00;102503.87;1971988;73;30957;-75
2021/08/29 11:10:48;;;;;;;31.50;29.77;;;;;;;19.13;100.00;102513.51;1971929;73;30946;-76
2021/08/29 11:17:10;;;;;;;28.90;27.20;;;;;;;18.96;100.00;102510.36;1971931;73;30990;-72
2021/08/29 11:22:40;;;;;;;28.30;26.83;;;;;;;19.23;100.00;102505.49;1948143;73;30937;-68
2021/08/29 11:28:21;;;;;;;27.73;26.03;;;;;;;19.14;100.00;102499.70;1971964;73;30938;-76
2021/08/29 11:33:46;;;;;;;28.20;26.60;;;;;;;19.30;100.00;102487.05;1972060;73;30960;-68
2021/08/29 11:39:34;;;;;;;29.07;27.30;;;;;;;19.57;100.00;102487.81;1972034;73;30944;-68
2021/08/29 11:45:31;;;;;;;25.83;24.43;;;;;;;19.67;100.00;102487.66;2016423;71;30892;-76
2021/08/29 11:50:57;;;;;;;25.37;23.90;;;;;;;19.38;100.00;102494.02;1972129;73;33464;-70
2021/08/29 11:56:28;;;;;;;25.60;24.20;;;;;;;19.41;100.00;102489.17;1971917;73;31019;-73
2021/08/29 12:01:57;;;;;;;24.60;23.10;;;;;;;19.76;100.00;102483.00;1972157;73;31439;-74
2021/08/29 12:07:23;;;;;;;23.93;22.53;;;;;;;20.17;100.00;102476.05;1971911;73;31049;-68
2021/08/29 12:12:49;;;;;;;24.60;23.07;;;;;;;20.13;100.00;102476.41;1971934;73;30996;-75
2021/08/29 12:18:17;;;;;;;21.93;20.80;;;;;;;20.20;100.00;102477.40;1972140;73;31452;-74
2021/08/29 12:23:42;;;;;;;21.30;20.10;;;;;;;19.88;100.00;102475.45;1972136;73;31544;-70
2021/08/29 12:29:09;;;;;;;20.70;19.43;;;;;;;20.11;100.00;102464.58;1972152;72;31026;-72
2021/08/29 12:34:37;;;;;;;20.80;19.70;;;;;;;20.43;100.00;102461.74;1971961;73;30965;-68
2021/08/29 12:40:07;;;;;;;19.73;18.73;;;;;;;20.36;100.00;102465.56;1972133;73;31640;-68
2021/08/29 12:45:35;;;;;;;20.10;19.00;;;;;;;20.56;100.00;102464.88;1971968;73;31064;-70
2021/08/29 12:51:03;;;;;;;19.73;18.63;;;;;;;20.78;100.00;102457.34;1972204;73;31628;-74
2021/08/29 12:56:29;;;;;;;18.33;17.33;;;;;;;20.68;100.00;102468.01;1971896;73;30954;-73
2021/08/29 13:01:55;;;;;;;18.20;17.20;;;;;;;20.56;100.00;102461.48;1972160;73;31494;-69
2021/08/29 13:07:23;;;;;;;17.93;17.03;;;;;;;20.56;100.00;102456.41;1972121;73;31491;-73
2021/08/29 13:12:50;;;;;;;16.10;15.30;;;;;;;20.75;100.00;102457.15;1971977;73;31078;-74
2021/08/29 13:18:25;;;;;;;16.40;15.60;;;;;;;20.41;100.00;102456.13;1971891;73;31084;-73
2021/08/29 13:23:50;;;;;;;18.13;17.10;;;;;;;20.09;100.00;102464.64;1971932;73;31065;-75
2021/08/29 13:29:15;;;;;;;18.97;17.97;;;;;;;20.00;100.00;102461.13;1971938;73;31048;-68
2021/08/29 13:34:41;;;;;;;17.50;16.60;;;;;;;20.05;100.00;102465.84;1971970;73;30981;-74
2021/08/29 13:40:10;;;;;;;19.37;18.47;;;;;;;19.96;100.00;102462.05;1972192;73;30985;-73
2021/08/29 13:45:38;;;;;;;20.00;18.90;;;;;;;19.91;100.00;102463.55;1972182;73;31579;-73
2021/08/29 13:51:03;;;;;;;19.20;18.17;;;;;;;19.87;100.00;102456.85;1971920;73;31002;-71
2021/08/29 13:56:31;;;;;;;19.23;18.20;;;;;;;20.14;100.00;102465.39;1972158;73;31506;-68
2021/08/29 14:02:15;;;;;;;19.63;18.63;;;;;;;20.13;100.00;102459.48;2016445;71;30959;-70
2021/08/29 14:07:39;;;;;;;19.70;18.80;;;;;;;19.82;100.00;102460.59;1972155;73;33443;-75
2021/08/29 14:13:05;;;;;;;19.70;18.70;;;;;;;19.75;100.00;102458.76;1971976;72;31077;-74
2021/08/29 14:18:29;;;;;;;20.77;19.67;;;;;;;19.95;100.00;102453.31;1971928;73;33000;-71
2021/08/29 14:23:54;;;;;;;19.77;18.67;;;;;;;20.00;100.00;102447.59;1971950;73;31078;-74
2021/08/29 14:29:18;;;;;;;19.50;18.40;;;;;;;19.89;100.00;102449.77;1971942;73;30975;-68
2021/08/29 14:34:43;;;;;;;20.90;19.87;;;;;;;19.54;100.00;102453.20;1972160;73;31536;-68
2021/08/29 14:40:10;;;;;;;21.90;20.90;;;;;;;19.49;100.00;102450.45;1971928;73;31057;-75
2021/08/29 14:45:35;;;;;;;20.57;19.57;;;;;;;19.52;100.00;102445.60;1972176;73;33481;-70
2021/08/29 14:51:00;;;;;;;19.73;18.93;;;;;;;19.63;100.00;102440.08;1972124;73;31433;-69
2021/08/29 14:56:27;;;;;;;18.40;17.50;;;;;;;19.95;100.00;102441.47;1971931;73;30982;-70
2021/08/29 15:01:52;;;;;;;17.30;16.20;;;;;;;20.12;100.00;102438.05;1972147;73;31028;-68
2021/08/29 15:07:17;;;;;;;18.47;17.57;;;;;;;20.24;100.00;102431.31;1972152;73;31581;-71
2021/08/29 15:12:42;;;;;;;15.27;14.67;;;;;;;20.20;100.00;102426.03;1971939;73;31053;-70
2021/08/29 15:18:08;;;;;;;15.07;14.47;;;;;;;20.18;100.00;102429.76;1972158;73;33434;-71
2021/08/29 15:23:33;;;;;;;15.87;15.03;;;;;;;20.40;100.00;102427.09;1971971;73;31075;-68
2021/08/29 15:28:58;;;;;;;14.20;13.40;;;;;;;20.37;100.00;102418.39;1972155;73;31505;-68
2021/08/29 15:34:22;;;;;;;16.23;15.23;;;;;;;20.39;100.00;102421.75;1972044;73;30979;-69
2021/08/29 15:39:49;;;;;;;14.30;13.70;;;;;;;20.32;100.00;102406.63;1971999;73;31072;-72
2021/08/29 15:45:14;;;;;;;13.40;12.90;;;;;;;20.17;100.00;102423.00;1972082;73;30967;-70
2021/08/29 15:50:40;;;;;;;12.90;12.30;;;;;;;20.04;100.00;102416.20;1971931;73;30987;-71
2021/08/29 15:56:05;;;;;;;12.30;11.70;;;;;;;20.10;100.00;102422.02;1971888;73;31067;-68
2021/08/29 16:01:31;;;;;;;13.20;12.50;;;;;;;20.16;100.00;102426.40;1972135;73;33409;-66
2021/08/29 16:06:55;;;;;;;14.33;13.53;;;;;;;19.96;100.00;102426.80;1972004;73;30961;-67
2021/08/29 16:12:22;;;;;;;14.43;13.63;;;;;;;19.82;100.00;102431.55;1972131;73;31490;-72
2021/08/29 16:17:47;;;;;;;13.80;13.20;;;;;;;19.99;100.00;102432.64;1971921;73;30973;-74
2021/08/29 16:23:13;;;;;;;15.63;14.83;;;;;;;19.89;100.00;102422.14;1937148;74;31172;-67
2021/08/29 16:28:46;;;;;;;14.90;14.07;;;;;;;19.75;100.00;102424.92;1972345;73;31045;-74
2021/08/29 16:34:10;;;;;;;15.53;14.83;;;;;;;19.32;100.00;102425.61;1971949;73;30973;-74
2021/08/29 16:39:35;;;;;;;15.50;14.70;;;;;;;19.26;100.00;102424.57;1971902;73;30965;-69
2021/08/29 16:45:04;;;;;;;16.20;15.47;;;;;;;19.31;100.00;102424.50;1972156;73;31073;-74
2021/08/29 16:50:28;;;;;;;15.67;14.80;;;;;;;19.25;100.00;102418.12;1972168;73;31459;-74
2021/08/29 16:55:53;;;;;;;15.93;15.13;;;;;;;19.08;100.00;102427.69;1972122;73;33428;-67
2021/08/29 17:01:18;;;;;;;17.13;16.33;;;;;;;19.12;100.00;102425.09;1972153;73;31466;-74
2021/08/29 17:06:42;;;;;;;16.27;15.47;;;;;;;19.12;100.00;102426.50;1972043;73;31074;-67
2021/08/29 17:12:07;;;;;;;23.87;22.23;;;;;;;19.57;100.00;102422.13;1972132;73;31035;-73
2021/08/29 17:17:33;;;;;;;17.30;16.30;;;;;;;19.65;100.00;102419.45;1971944;73;31062;-74
2021/08/29 17:22:58;;;;;;;18.57;17.60;;;;;;;19.16;100.00;102427.00;1959975;71;31543;-69
2021/08/29 17:28:25;;;;;;;19.83;18.80;;;;;;;19.05;100.00;102426.30;1971939;73;30996;-74
2021/08/29 17:33:50;;;;;;;20.80;19.60;;;;;;;18.96;100.00;102418.27;1971963;73;30957;-72
2021/08/29 17:39:16;;;;;;;19.47;18.43;;;;;;;18.96;100.00;102416.02;1971952;73;31057;-72
2021/08/29 17:44:42;;;;;;;20.73;19.47;;;;;;;18.92;100.00;102417.77;1972282;73;33446;-74
2021/08/29 17:50:14;;;;;;;21.10;20.00;;;;;;;18.81;100.00;102414.84;1972240;73;31009;-74
2021/08/29 17:55:39;;;;;;;22.77;21.30;;;;;;;18.79;100.00;102415.12;1972059;73;30964;-70
2021/08/29 18:01:06;;;;;;;21.80;20.43;;;;;;;18.76;100.00;102408.70;1971946;73;30969;-75
2021/08/29 18:06:33;;;;;;;22.80;21.50;;;;;;;18.76;100.00;102409.27;1971989;73;30979;-73
2021/08/29 18:12:04;;;;;;;21.40;20.30;;;;;;;18.92;100.00;102413.53;1971974;73;30975;-71
2021/08/29 18:17:29;;;;;;;19.80;18.80;;;;;;;18.88;100.00;102403.45;1971924;73;30959;-70
2021/08/29 18:22:54;;;;;;;20.40;19.33;;;;;;;18.76;100.00;102409.27;1971911;73;31084;-70
2021/08/29 18:28:25;;;;;;;20.23;19.03;;;;;;;18.52;100.00;102417.73;1971940;73;30984;-72
2021/08/29 18:34:10;;;;;;;18.10;17.07;;;;;;;18.36;100.00;102419.87;2016085;71;30901;-74
2021/08/29 18:39:35;;;;;;;18.00;17.03;;;;;;;18.34;100.00;102419.35;1972197;73;31464;-74
2021/08/29 18:45:00;;;;;;;17.73;16.73;;;;;;;18.34;100.00;102419.91;1972109;73;31058;-73
2021/08/29 18:50:26;;;;;;;17.57;16.57;;;;;;;18.26;100.00;102423.39;1972146;73;33407;-71
2021/08/29 18:55:52;;;;;;;18.13;17.30;;;;;;;18.30;100.00;102424.47;1971901;73;31036;-71
2021/08/29 19:01:22;;;;;;;18.00;17.10;;;;;;;18.16;100.00;102439.80;1971977;73;31062;-72
2021/08/29 19:06:48;;;;;;;18.50;17.60;;;;;;;18.10;100.00;102441.83;1972181;73;31663;-74
2021/08/29 19:12:14;;;;;;;19.13;18.13;;;;;;;17.90;100.00;102449.63;1972072;73;31052;-73
2021/08/29 19:17:38;;;;;;;20.00;18.50;;;;;;;17.72;100.00;102447.82;1971981;73;31129;-73
2021/08/29 19:23:07;;;;;;;20.03;19.03;;;;;;;17.73;100.00;102450.07;1972202;73;31508;-71
2021/08/29 19:28:32;;;;;;;19.70;18.60;;;;;;;17.61;100.00;102456.64;1972047;73;32932;-69
2021/08/29 19:33:57;;;;;;;21.77;20.60;;;;;;;17.43;100.00;102468.55;1972031;73;30969;-72
2021/08/29 19:39:22;;;;;;;22.23;21.03;;;;;;;17.33;100.00;102472.26;1971936;73;30966;-72
2021/08/29 19:44:47;;;;;;;23.40;22.10;;;;;;;17.10;100.00;102472.98;1971961;73;31049;-74
2021/08/29 19:50:14;;;;;;;23.40;22.10;;;;;;;17.02;100.00;102469.39;1972088;73;33466;-73
2021/08/29 19:55:45;;;;;;;24.83;23.37;;;;;;;16.78;100.00;102478.47;1971900;73;32922;-70
2021/08/29 20:01:10;;;;;;;26.20;24.67;;;;;;;16.95;100.00;102479.52;1972169;73;33617;-68
2021/08/29 20:06:34;;;;;;;25.50;24.10;;;;;;;16.97;100.00;102483.45;1972251;72;30959;-70
2021/08/29 20:11:59;;;;;;;27.47;25.60;;;;;;;16.72;100.00;102482.45;1971951;73;33009;-70
2021/08/29 20:17:24;;;;;;;26.93;25.33;;;;;;;16.76;100.00;102483.55;1972135;73;33447;-71
2021/08/29 20:22:48;;;;;;;27.53;25.93;;;;;;;16.72;100.00;102483.84;1960798;71;31528;-73
2021/08/29 20:28:16;;;;;;;28.47;26.77;;;;;;;16.76;100.00;102486.91;1972018;73;30937;-70
2021/08/29 20:33:41;;;;;;;28.30;26.70;;;;;;;16.75;100.00;102479.61;1972308;73;33451;-72
2021/08/29 20:39:06;;;;;;;30.53;28.63;;;;;;;16.65;100.00;102486.10;1972161;73;32950;-71
2021/08/29 20:44:30;;;;;;;32.93;30.97;;;;;;;16.66;100.00;102489.75;1972006;72;32894;-71
2021/08/29 20:49:55;;;;;;;32.50;30.53;;;;;;;16.67;100.00;102490.03;1971934;73;32875;-71
2021/08/29 20:55:19;;;;;;;32.83;30.83;;;;;;;16.73;100.00;102489.72;1971852;73;32965;-70
2021/08/29 21:00:43;;;;;;;32.73;30.73;;;;;;;16.61;100.00;102490.61;1971944;73;32972;-69
2021/08/29 21:06:08;;;;;;;32.33;30.53;;;;;;;16.77;100.00;102480.19;1972150;72;30965;-71
2021/08/29 21:11:33;;;;;;;32.17;30.27;;;;;;;16.65;100.00;102489.47;1971942;73;32949;-73
2021/08/29 21:16:57;;;;;;;32.03;29.93;;;;;;;16.62;100.00;102490.89;1971913;73;32910;-72
2021/08/29 21:22:22;;;;;;;32.47;30.33;;;;;;;16.54;100.00;102491.45;1962850;71;32910;-74
2021/08/29 21:27:50;;;;;;;32.13;30.23;;;;;;;16.47;100.00;102496.53;1972115;73;32949;-70
2021/08/29 21:33:16;;;;;;;32.97;30.87;;;;;;;16.37;100.00;102495.98;1971978;73;30928;-70
2021/08/29 21:38:44;;;;;;;34.80;32.60;;;;;;;16.44;100.00;102502.69;1971887;73;32968;-74
2021/08/29 21:44:10;;;;;;;34.73;32.73;;;;;;;16.38;100.00;102503.84;1972311;72;30930;-74
2021/08/29 21:49:38;;;;;;;37.10;34.90;;;;;;;16.49;100.00;102490.06;1972124;73;33374;-69
2021/08/29 21:55:11;;;;;;;35.37;33.10;;;;;;;16.59;100.00;102493.44;1971970;73;32921;-70
2021/08/29 22:00:38;;;;;;;35.03;32.87;;;;;;;16.48;100.00;102492.58;1972137;73;33482;-74
2021/08/29 22:06:03;;;;;;;36.17;33.87;;;;;;;16.64;100.00;102496.23;1971879;73;32977;-74
2021/08/29 22:11:28;;;;;;;35.73;33.43;;;;;;;16.52;100.00;102500.70;1971945;73;33006;-70
2021/08/29 22:16:53;;;;;;;35.53;33.43;;;;;;;16.46;100.00;102503.82;1972153;73;32957;-70
2021/08/29 22:22:17;;;;;;;37.20;35.00;;;;;;;16.59;100.00;102504.09;1972060;73;30980;-73
2021/08/29 22:27:46;;;;;;;37.20;34.90;;;;;;;16.68;100.00;102500.14;1972005;73;33484;-74
2021/08/29 22:33:13;;;;;;;36.53;34.17;;;;;;;16.58;100.00;102500.16;1972232;73;30922;-74
2021/08/29 22:38:39;;;;;;;35.47;33.27;;;;;;;16.71;100.00;102499.00;1972172;73;33411;-74
2021/08/29 22:44:03;;;;;;;34.10;31.93;;;;;;;16.63;100.00;102508.57;1972191;73;33467;-69
2021/08/29 22:49:28;;;;;;;34.00;31.90;;;;;;;16.74;100.00;102503.19;1972132;73;33383;-74
2021/08/29 22:54:54;;;;;;;34.30;32.30;;;;;;;16.73;100.00;102503.75;1971918;73;32971;-74
2021/08/29 23:00:19;;;;;;;36.27;34.23;;;;;;;16.64;100.00;102505.49;1972176;73;33415;-69
2021/08/29 23:05:44;;;;;;;35.67;33.47;;;;;;;16.72;100.00;102511.91;1972124;73;32870;-70
2021/08/29 23:11:08;;;;;;;36.57;34.37;;;;;;;16.69;100.00;102507.41;1972143;73;33471;-70
2021/08/29 23:16:33;;;;;;;35.53;33.37;;;;;;;16.77;100.00;102508.25;1972137;73;33388;-70
2021/08/29 23:21:58;;;;;;;35.40;33.17;;;;;;;16.83;100.00;102512.70;1955844;73;31459;-74